Time;durP1;ratioP1;P1;durP2;ratioP2;P2;SDS_P1;SDS_P2;PMS_P1;PMS_P2;Temp;Humidity;BMP_temperature;BMP_pressure;BME280_temperature;BME280_humidity;BME280_pressure;Samples;Min_cycle;Max_cycle;Signal;HPM_P1;HPM_P2
2021/07/03 00:00:09;;;;;;;16.67;14.97;;;13.20;99.90;;;;;;5040723;28;20514;-74
2021/07/03 00:02:36;;;;;;;17.37;15.17;;;13.10;99.90;;;;;;5053304;28;21334;-74
2021/07/03 00:05:03;;;;;;;15.40;13.80;;;13.10;99.90;;;;;;5045518;28;20550;-75
2021/07/03 00:07:31;;;;;;;16.00;14.27;;;13.10;99.90;;;;;;5040826;28;20474;-74
2021/07/03 00:09:59;;;;;;;18.50;14.50;;;13.00;99.90;;;;;;5040198;28;20533;-75
2021/07/03 00:12:26;;;;;;;15.03;13.40;;;13.00;99.90;;;;;;5041364;28;20562;-74
2021/07/03 00:14:53;;;;;;;16.83;14.63;;;13.00;99.90;;;;;;5049199;28;20894;-75
2021/07/03 00:17:20;;;;;;;15.50;14.00;;;13.00;99.90;;;;;;5056348;28;20751;-75
2021/07/03 00:19:47;;;;;;;15.20;13.60;;;12.90;99.90;;;;;;5046033;28;20469;-75
2021/07/03 00:22:14;;;;;;;16.53;14.77;;;12.90;99.90;;;;;;5050390;28;20449;-75
2021/07/03 00:24:41;;;;;;;16.70;14.53;;;12.80;99.90;;;;;;5056566;28;20534;-75
2021/07/03 00:27:09;;;;;;;19.90;14.53;;;12.90;99.90;;;;;;5047773;28;20469;-75
2021/07/03 00:29:36;;;;;;;16.10;14.40;;;12.80;99.90;;;;;;5046918;28;20455;-75
2021/07/03 00:32:03;;;;;;;16.90;15.07;;;12.80;99.90;;;;;;5046958;28;20547;-74
2021/07/03 00:34:30;;;;;;;16.47;14.77;;;12.80;99.90;;;;;;5056663;28;20477;-74
2021/07/03 00:36:56;;;;;;;16.87;15.27;;;12.80;99.90;;;;;;5044823;28;20837;-74
2021/07/03 00:39:23;;;;;;;19.03;14.83;;;12.80;99.90;;;;;;5049775;28;20460;-74
2021/07/03 00:41:50;;;;;;;16.50;14.23;;;12.80;99.90;;;;;;5036954;28;20462;-74
2021/07/03 00:44:27;;;;;;;17.70;15.40;;;12.80;99.90;;;;;;5029022;28;20501;-74
2021/07/03 00:46:54;;;;;;;18.57;15.93;;;12.80;99.90;;;;;;5026503;28;20605;-74
2021/07/03 00:49:21;;;;;;;17.57;15.73;;;12.80;99.90;;;;;;5051779;28;20642;-74
2021/07/03 00:51:48;;;;;;;16.87;15.17;;;12.70;99.90;;;;;;5045813;28;20894;-74
2021/07/03 00:54:15;;;;;;;18.10;15.90;;;12.70;99.90;;;;;;5047865;28;20458;-74
2021/07/03 00:56:42;;;;;;;19.23;16.10;;;12.70;99.90;;;;;;5040704;28;20465;-74
2021/07/03 00:59:08;;;;;;;17.30;15.50;;;12.70;99.90;;;;;;5049891;28;20560;-74
2021/07/03 01:01:37;;;;;;;20.03;16.57;;;12.70;99.90;;;;;;5045375;28;20456;-74
2021/07/03 01:04:04;;;;;;;19.13;15.57;;;12.60;99.90;;;;;;5048045;28;20821;-74
2021/07/03 01:06:30;;;;;;;17.97;15.70;;;12.70;99.90;;;;;;5049818;28;20468;-74
2021/07/03 01:08:57;;;;;;;19.13;15.50;;;12.80;99.90;;;;;;5076418;28;20459;-75
2021/07/03 01:11:26;;;;;;;15.40;13.90;;;12.80;99.90;;;;;;5049798;28;20644;-75
2021/07/03 01:13:53;;;;;;;17.27;15.57;;;12.90;99.90;;;;;;5045232;28;20453;-74
2021/07/03 01:16:20;;;;;;;16.67;14.87;;;13.00;99.90;;;;;;5045253;28;20473;-74
2021/07/03 01:18:48;;;;;;;16.47;14.77;;;13.10;99.90;;;;;;5045707;28;20468;-74
2021/07/03 01:21:16;;;;;;;15.60;14.00;;;13.20;99.90;;;;;;5040455;28;20562;-74
2021/07/03 01:23:45;;;;;;;17.63;13.90;;;13.30;99.90;;;;;;5031976;28;22126;-75
2021/07/03 01:26:11;;;;;;;16.43;13.30;;;13.40;99.90;;;;;;5033297;28;20448;-75
2021/07/03 01:28:38;;;;;;;15.03;13.13;;;13.40;99.30;;;;;;5032930;28;20599;-75
2021/07/03 01:31:05;;;;;;;15.00;13.43;;;13.50;98.70;;;;;;5037264;28;20481;-74
2021/07/03 01:33:34;;;;;;;14.70;13.23;;;13.50;98.80;;;;;;5031864;28;20466;-74
2021/07/03 01:36:01;;;;;;;14.63;13.13;;;13.50;97.90;;;;;;5033567;28;20454;-73
2021/07/03 01:38:28;;;;;;;12.43;11.10;;;13.60;96.60;;;;;;5033415;28;20473;-74
2021/07/03 01:40:56;;;;;;;15.80;13.30;;;13.60;96.30;;;;;;5051227;28;20481;-74
2021/07/03 01:43:25;;;;;;;13.83;11.63;;;13.60;95.60;;;;;;5040909;28;20456;-74
2021/07/03 01:45:53;;;;;;;14.17;12.70;;;13.60;95.30;;;;;;5046988;28;20528;-74
2021/07/03 01:48:26;;;;;;;15.40;12.17;;;13.70;95.50;;;;;;5047555;28;20917;-74
2021/07/03 01:50:53;;;;;;;14.07;12.63;;;13.60;95.50;;;;;;5039664;28;20464;-74
2021/07/03 01:53:20;;;;;;;13.03;11.80;;;13.60;95.30;;;;;;5043308;28;20488;-74
2021/07/03 01:55:47;;;;;;;14.30;12.87;;;13.60;95.50;;;;;;5050987;28;20589;-74
2021/07/03 01:58:18;;;;;;;16.20;12.97;;;13.60;95.90;;;;;;5050291;28;20594;-73
2021/07/03 02:00:45;;;;;;;14.50;12.83;;;13.50;96.00;;;;;;5047947;28;20505;-74
2021/07/03 02:03:12;;;;;;;13.37;12.17;;;13.50;95.90;;;;;;5048119;28;20445;-73
2021/07/03 02:05:39;;;;;;;14.87;12.33;;;13.50;96.00;;;;;;5043274;28;21020;-74
2021/07/03 02:08:06;;;;;;;14.97;12.70;;;13.50;95.90;;;;;;5058221;28;20449;-73
2021/07/03 02:10:33;;;;;;;13.70;12.27;;;13.50;96.30;;;;;;5047619;28;20456;-74
2021/07/03 02:13:00;;;;;;;14.93;12.67;;;13.60;96.40;;;;;;5035195;28;20458;-74
2021/07/03 02:15:28;;;;;;;14.03;12.20;;;13.50;96.40;;;;;;5029970;28;20450;-74
2021/07/03 02:17:55;;;;;;;18.50;13.00;;;13.60;95.90;;;;;;5027232;28;20568;-74
2021/07/03 02:20:22;;;;;;;15.50;12.07;;;13.60;96.20;;;;;;5031220;28;20535;-74
2021/07/03 02:22:49;;;;;;;14.27;12.87;;;13.50;95.60;;;;;;5030421;28;20451;-74
2021/07/03 02:25:16;;;;;;;14.37;12.90;;;13.40;96.30;;;;;;5025791;28;20540;-73
2021/07/03 02:27:42;;;;;;;16.80;13.50;;;13.40;96.90;;;;;;5031198;28;20537;-73
2021/07/03 02:30:12;;;;;;;13.40;12.10;;;13.30;97.10;;;;;;5030563;28;20544;-73
2021/07/03 02:32:41;;;;;;;14.37;12.30;;;13.30;97.20;;;;;;5047175;28;20493;-74
2021/07/03 02:35:09;;;;;;;13.90;12.50;;;13.30;98.10;;;;;;5049319;28;20458;-74
2021/07/03 02:37:37;;;;;;;13.93;12.37;;;13.20;98.40;;;;;;5047739;28;20444;-74
2021/07/03 02:40:06;;;;;;;13.97;12.57;;;13.20;99.20;;;;;;5042681;28;20874;-74
2021/07/03 02:42:33;;;;;;;14.27;12.87;;;13.10;99.10;;;;;;5055858;28;20544;-74
2021/07/03 02:45:00;;;;;;;14.50;13.00;;;13.10;99.80;;;;;;5047492;28;20449;-74
2021/07/03 02:47:27;;;;;;;15.10;13.60;;;13.10;99.90;;;;;;5050280;28;21078;-74
2021/07/03 02:49:55;;;;;;;15.60;13.77;;;13.10;99.90;;;;;;5050045;28;20539;-74
2021/07/03 02:52:22;;;;;;;14.43;12.03;;;13.10;99.90;;;;;;5047479;28;20468;-74
2021/07/03 02:54:49;;;;;;;15.67;14.07;;;13.10;99.90;;;;;;5050041;28;20563;-74
2021/07/03 02:57:16;;;;;;;14.60;13.10;;;13.10;99.90;;;;;;5045132;28;20809;-73
2021/07/03 02:59:43;;;;;;;15.90;14.30;;;13.00;99.90;;;;;;5050799;28;20492;-74
2021/07/03 03:02:10;;;;;;;15.00;13.47;;;12.90;99.90;;;;;;5049662;28;21189;-75
2021/07/03 03:04:37;;;;;;;14.97;13.50;;;12.80;99.90;;;;;;5047774;28;20449;-75
2021/07/03 03:07:06;;;;;;;16.37;14.77;;;12.70;99.90;;;;;;5048207;28;20461;-74
2021/07/03 03:09:33;;;;;;;16.93;14.13;;;12.60;99.90;;;;;;5043912;28;20445;-74
2021/07/03 03:12:00;;;;;;;19.17;15.17;;;12.50;99.90;;;;;;5035594;28;20994;-73
2021/07/03 03:14:26;;;;;;;16.53;14.90;;;12.60;99.90;;;;;;5049874;28;20504;-74
2021/07/03 03:16:54;;;;;;;18.57;15.10;;;12.60;99.90;;;;;;5043255;28;20480;-74
2021/07/03 03:19:21;;;;;;;17.57;15.03;;;12.60;99.90;;;;;;5053537;28;20511;-74
2021/07/03 03:21:48;;;;;;;17.30;15.50;;;12.50;99.90;;;;;;5045389;28;20492;-74
2021/07/03 03:24:16;;;;;;;17.80;15.83;;;12.40;99.90;;;;;;5045603;28;20450;-74
2021/07/03 03:26:43;;;;;;;18.97;16.90;;;12.30;99.90;;;;;;5042274;28;20955;-74
2021/07/03 03:29:10;;;;;;;19.30;16.10;;;12.30;99.90;;;;;;5048508;28;20455;-75
2021/07/03 03:31:37;;;;;;;22.10;16.57;;;12.30;99.90;;;;;;5044966;28;20511;-75
2021/07/03 03:34:04;;;;;;;16.90;15.10;;;12.20;99.90;;;;;;5045952;28;20490;-74
2021/07/03 03:36:31;;;;;;;21.43;18.17;;;12.10;99.90;;;;;;5057622;28;20542;-75
2021/07/03 03:38:58;;;;;;;20.53;18.07;;;12.20;99.90;;;;;;5045672;28;20547;-75
2021/07/03 03:41:26;;;;;;;18.77;16.87;;;12.20;99.90;;;;;;5056354;28;20564;-75
2021/07/03 03:43:53;;;;;;;20.87;17.10;;;12.20;99.90;;;;;;5042210;28;20459;-75
2021/07/03 03:46:19;;;;;;;21.30;17.33;;;12.30;99.90;;;;;;5049533;28;20463;-75
2021/07/03 03:48:46;;;;;;;19.07;17.07;;;12.30;99.90;;;;;;5044394;28;20464;-75
2021/07/03 03:51:13;;;;;;;18.97;16.50;;;12.30;99.90;;;;;;5046885;28;20548;-75
2021/07/03 03:53:40;;;;;;;16.57;14.80;;;12.30;99.90;;;;;;5042648;28;20526;-75
2021/07/03 03:56:07;;;;;;;23.13;16.40;;;12.40;99.90;;;;;;5074955;28;20499;-75
2021/07/03 03:58:35;;;;;;;16.90;15.10;;;12.40;99.90;;;;;;5058082;28;20473;-75
2021/07/03 04:01:02;;;;;;;18.60;16.33;;;12.40;99.90;;;;;;5058894;28;21026;-75
2021/07/03 04:03:29;;;;;;;18.10;16.17;;;12.50;99.90;;;;;;5047691;28;20445;-75
2021/07/03 04:05:55;;;;;;;19.40;15.70;;;12.50;99.90;;;;;;5049103;28;20538;-77
2021/07/03 04:08:22;;;;;;;17.00;15.20;;;12.60;99.90;;;;;;5050866;28;20456;-74
2021/07/03 04:10:49;;;;;;;16.93;14.90;;;12.60;99.90;;;;;;5054674;28;20963;-74
2021/07/03 04:13:16;;;;;;;16.30;14.70;;;12.90;99.90;;;;;;5042606;28;20519;-74
2021/07/03 04:15:44;;;;;;;14.17;12.67;;;13.30;99.90;;;;;;5052817;28;20476;-74
2021/07/03 04:18:11;;;;;;;14.80;13.30;;;13.70;95.90;;;;;;5050217;28;20453;-74
2021/07/03 04:20:38;;;;;;;13.60;12.20;;;14.00;93.90;;;;;;5042486;28;20556;-74
2021/07/03 04:23:05;;;;;;;12.40;11.10;;;14.10;92.90;;;;;;5046910;28;20616;-74
2021/07/03 04:25:32;;;;;;;13.33;11.93;;;14.10;92.20;;;;;;5050375;28;20536;-74
2021/07/03 04:28:00;;;;;;;13.70;12.23;;;14.20;91.60;;;;;;5053403;28;20523;-74
2021/07/03 04:30:27;;;;;;;13.70;11.43;;;14.60;91.20;;;;;;5044785;28;20459;-75
2021/07/03 04:32:57;;;;;;;11.57;10.10;;;15.10;88.30;;;;;;5047294;28;20444;-75
2021/07/03 04:35:24;;;;;;;13.23;11.93;;;15.50;85.20;;;;;;5050945;28;20464;-75
2021/07/03 04:37:50;;;;;;;12.03;10.93;;;15.70;84.30;;;;;;5049203;28;20523;-75
2021/07/03 04:40:17;;;;;;;11.57;10.50;;;16.00;81.60;;;;;;5043685;28;20480;-75
2021/07/03 04:42:44;;;;;;;12.37;10.07;;;16.10;80.70;;;;;;5055566;28;20470;-75
2021/07/03 04:45:11;;;;;;;11.47;10.37;;;16.30;78.50;;;;;;5047771;28;20495;-75
2021/07/03 04:47:38;;;;;;;11.10;9.90;;;16.30;77.70;;;;;;5044565;28;20976;-75
2021/07/03 04:50:08;;;;;;;11.13;10.13;;;16.50;77.90;;;;;;5039268;28;20457;-75
2021/07/03 04:52:36;;;;;;;10.70;9.70;;;16.80;75.80;;;;;;5050357;28;20530;-76
2021/07/03 04:55:03;;;;;;;11.07;10.00;;;17.20;73.80;;;;;;5051718;28;20534;-76
2021/07/03 04:57:30;;;;;;;10.60;9.60;;;17.30;72.50;;;;;;5048136;28;20917;-76
2021/07/03 04:59:57;;;;;;;10.27;9.27;;;17.40;71.90;;;;;;5040745;28;21280;-75
2021/07/03 05:02:24;;;;;;;10.10;9.10;;;17.50;71.20;;;;;;5041566;28;20565;-75
2021/07/03 05:04:51;;;;;;;10.23;9.27;;;17.60;70.50;;;;;;5054407;28;20442;-75
2021/07/03 05:07:19;;;;;;;10.47;9.50;;;17.70;70.20;;;;;;5047627;28;20570;-75
2021/07/03 05:09:46;;;;;;;10.90;10.00;;;17.90;70.40;;;;;;5042950;28;20493;-75
2021/07/03 05:12:13;;;;;;;9.73;8.60;;;18.30;69.20;;;;;;5046535;28;20546;-76
2021/07/03 05:14:40;;;;;;;9.37;8.57;;;18.60;68.10;;;;;;5047162;28;20554;-74
2021/07/03 05:17:07;;;;;;;9.90;8.90;;;19.00;68.20;;;;;;5043110;28;20570;-75
2021/07/03 05:19:33;;;;;;;10.83;9.93;;;19.10;67.10;;;;;;5039097;28;20989;-76
2021/07/03 05:22:00;;;;;;;10.50;9.53;;;19.50;66.10;;;;;;5048681;28;21383;-75
2021/07/03 05:24:28;;;;;;;10.47;9.67;;;19.60;65.10;;;;;;5041781;28;20624;-75
2021/07/03 05:26:55;;;;;;;9.33;8.50;;;19.70;65.00;;;;;;5042265;28;20503;-76
2021/07/03 05:29:22;;;;;;;10.67;9.67;;;19.60;64.80;;;;;;5053510;28;21127;-76
2021/07/03 05:31:51;;;;;;;12.00;9.20;;;19.60;65.10;;;;;;5047637;28;20441;-76
2021/07/03 05:34:18;;;;;;;9.87;9.00;;;19.40;64.70;;;;;;5047436;28;20453;-76
2021/07/03 05:36:48;;;;;;;11.10;10.07;;;19.10;64.60;;;;;;5041943;28;20457;-75
2021/07/03 05:39:15;;;;;;;21.53;15.53;;;18.40;65.20;;;;;;5052698;28;20617;-75
2021/07/03 05:41:44;;;;;;;12.13;11.10;;;17.90;66.30;;;;;;5051360;28;21019;-76
2021/07/03 05:44:11;;;;;;;10.43;9.53;;;17.60;67.20;;;;;;5059707;28;20515;-75
2021/07/03 05:46:38;;;;;;;10.83;9.77;;;17.70;68.00;;;;;;5056676;28;20453;-76
2021/07/03 05:49:04;;;;;;;11.13;10.20;;;18.10;67.70;;;;;;5044293;28;20938;-76
2021/07/03 05:51:31;;;;;;;11.13;10.03;;;18.40;67.10;;;;;;5046324;28;20528;-75
2021/07/03 05:54:00;;;;;;;11.40;9.50;;;18.60;66.10;;;;;;5040938;28;20463;-76
2021/07/03 05:56:27;;;;;;;10.60;9.60;;;19.00;65.90;;;;;;5045313;28;20577;-76
2021/07/03 05:58:56;;;;;;;11.17;9.50;;;19.40;65.30;;;;;;5053863;28;20476;-76
2021/07/03 06:01:23;;;;;;;11.90;10.70;;;19.40;65.00;;;;;;5045522;28;20456;-77
2021/07/03 06:03:49;;;;;;;10.00;8.97;;;19.30;64.40;;;;;;5044473;28;20457;-76
2021/07/03 06:06:16;;;;;;;10.90;9.80;;;19.50;64.50;;;;;;5050379;28;20500;-76
2021/07/03 06:08:43;;;;;;;10.10;9.10;;;19.80;64.20;;;;;;5052194;28;21112;-77
2021/07/03 06:11:10;;;;;;;11.60;9.03;;;20.00;63.80;;;;;;5056165;28;20482;-76
2021/07/03 06:13:37;;;;;;;11.30;10.20;;;20.30;63.90;;;;;;5047500;28;20453;-76
2021/07/03 06:16:06;;;;;;;10.10;9.17;;;20.10;63.10;;;;;;5051546;28;20497;-76
2021/07/03 06:18:33;;;;;;;10.23;9.23;;;20.10;62.90;;;;;;5046300;28;21033;-77
2021/07/03 06:21:00;;;;;;;10.33;9.33;;;20.30;62.70;;;;;;5053907;28;20447;-77
2021/07/03 06:23:27;;;;;;;9.87;8.93;;;20.30;63.00;;;;;;5044954;28;20478;-76
2021/07/03 06:25:54;;;;;;;9.63;8.90;;;20.40;63.30;;;;;;5055646;28;20536;-76
2021/07/03 06:28:21;;;;;;;10.57;9.77;;;20.50;62.80;;;;;;5054871;28;20484;-76
2021/07/03 06:30:48;;;;;;;10.80;9.90;;;20.50;62.70;;;;;;5034850;28;20463;-76
2021/07/03 06:33:17;;;;;;;9.50;8.80;;;20.30;62.40;;;;;;5047648;28;20492;-76
2021/07/03 06:35:43;;;;;;;9.50;8.67;;;20.00;62.60;;;;;;5050964;28;20465;-77
2021/07/03 06:38:10;;;;;;;9.60;8.90;;;20.00;63.10;;;;;;5049686;28;20436;-76
2021/07/03 06:40:37;;;;;;;10.70;9.70;;;19.90;62.80;;;;;;5041003;28;20501;-77
2021/07/03 06:43:04;;;;;;;9.90;9.10;;;19.90;62.80;;;;;;5050303;28;21338;-77
2021/07/03 06:45:31;;;;;;;11.07;10.03;;;19.80;62.40;;;;;;5050398;28;20452;-77
2021/07/03 06:47:58;;;;;;;11.20;10.20;;;19.60;62.30;;;;;;5057840;28;20506;-77
2021/07/03 06:50:26;;;;;;;11.47;10.27;;;19.50;62.60;;;;;;5051290;28;20456;-77
2021/07/03 06:52:53;;;;;;;10.87;9.77;;;19.10;62.70;;;;;;5051330;28;20839;-77
2021/07/03 06:55:20;;;;;;;11.07;9.97;;;19.10;63.30;;;;;;5042115;28;20518;-76
2021/07/03 06:57:47;;;;;;;12.00;10.80;;;19.20;63.30;;;;;;5035043;28;20462;-76
2021/07/03 07:00:15;;;;;;;11.23;10.00;;;19.20;63.00;;;;;;5035627;28;20575;-75
2021/07/03 07:02:42;;;;;;;10.80;9.80;;;19.40;62.90;;;;;;5035373;28;20448;-76
2021/07/03 07:05:09;;;;;;;11.47;10.37;;;19.50;62.90;;;;;;5045780;28;20454;-78
2021/07/03 07:07:37;;;;;;;10.87;9.73;;;19.60;63.20;;;;;;5049067;28;20505;-77
2021/07/03 07:10:05;;;;;;;11.60;10.40;;;19.80;63.20;;;;;;5046951;28;20448;-77
2021/07/03 07:12:32;;;;;;;10.47;9.53;;;19.90;62.40;;;;;;5054072;28;20541;-77
2021/07/03 07:14:59;;;;;;;11.40;10.23;;;20.00;62.30;;;;;;5049693;28;20445;-77
2021/07/03 07:17:26;;;;;;;11.43;10.33;;;20.00;62.10;;;;;;5049852;28;20993;-77
2021/07/03 07:19:53;;;;;;;11.40;10.40;;;20.10;62.10;;;;;;5044667;28;20559;-77
2021/07/03 07:22:20;;;;;;;10.90;9.90;;;20.20;62.30;;;;;;5049135;28;20526;-77
2021/07/03 07:24:48;;;;;;;11.87;9.97;;;20.40;62.30;;;;;;5053918;28;21130;-81
2021/07/03 07:27:15;;;;;;;10.73;9.73;;;20.40;61.80;;;;;;5049118;28;20478;-77
2021/07/03 07:29:41;;;;;;;10.60;9.27;;;20.50;61.40;;;;;;5047021;28;20443;-75
2021/07/03 07:32:08;;;;;;;11.17;9.30;;;20.70;61.90;;;;;;5053227;28;20880;-75
2021/07/03 07:34:35;;;;;;;11.10;9.90;;;20.90;61.30;;;;;;5049381;28;20446;-77
2021/07/03 07:37:04;;;;;;;10.53;9.63;;;21.20;60.90;;;;;;5033384;28;20521;-76
2021/07/03 07:39:31;;;;;;;11.13;9.97;;;21.00;60.30;;;;;;5036936;28;20464;-76
2021/07/03 07:42:00;;;;;;;11.90;10.70;;;21.00;60.80;;;;;;5036242;28;20457;-77
2021/07/03 07:44:27;;;;;;;11.67;9.30;;;21.00;61.20;;;;;;5050956;28;20461;-77
2021/07/03 07:46:53;;;;;;;10.50;9.50;;;21.20;61.00;;;;;;5050387;28;20454;-76
2021/07/03 07:49:20;;;;;;;10.47;9.57;;;21.20;60.40;;;;;;5044977;28;20999;-76
2021/07/03 07:51:47;;;;;;;10.00;8.97;;;21.30;60.00;;;;;;5059776;28;20455;-77
2021/07/03 07:54:14;;;;;;;9.90;9.00;;;21.30;60.10;;;;;;5049954;28;20547;-76
2021/07/03 07:56:41;;;;;;;9.73;8.90;;;21.30;59.80;;;;;;5044037;28;20501;-76
2021/07/03 07:59:09;;;;;;;10.50;8.90;;;21.30;59.90;;;;;;5047108;28;20454;-76
2021/07/03 08:01:36;;;;;;;10.50;9.30;;;21.20;59.60;;;;;;5054858;28;20462;-77
2021/07/03 08:04:03;;;;;;;10.20;9.13;;;21.20;59.70;;;;;;5039966;28;20494;-77
2021/07/03 08:06:30;;;;;;;9.70;8.90;;;21.50;59.90;;;;;;5057237;28;20464;-76
2021/07/03 08:08:57;;;;;;;9.67;8.87;;;21.70;59.40;;;;;;5054265;28;20461;-77
2021/07/03 08:11:24;;;;;;;10.37;7.93;;;21.70;59.20;;;;;;5056342;28;20442;-77
2021/07/03 08:13:51;;;;;;;11.40;9.93;;;21.60;59.60;;;;;;5050524;28;20543;-77
2021/07/03 08:16:19;;;;;;;10.30;9.30;;;21.70;60.10;;;;;;5047460;28;20483;-76
2021/07/03 08:18:46;;;;;;;9.97;9.07;;;21.90;60.00;;;;;;5038076;28;20485;-75
2021/07/03 08:21:13;;;;;;;11.50;9.40;;;22.10;59.80;;;;;;5055269;28;20487;-77
2021/07/03 08:23:40;;;;;;;9.60;8.03;;;22.30;59.70;;;;;;5052293;28;20485;-77
2021/07/03 08:26:07;;;;;;;9.63;8.83;;;22.20;59.50;;;;;;5046163;28;20454;-76
2021/07/03 08:28:34;;;;;;;9.27;8.57;;;22.10;59.30;;;;;;5052000;28;20476;-77
2021/07/03 08:31:02;;;;;;;9.30;8.43;;;22.20;59.00;;;;;;5053068;28;20505;-77
2021/07/03 08:33:30;;;;;;;9.60;8.70;;;22.30;59.20;;;;;;5046946;28;20450;-76
2021/07/03 08:35:57;;;;;;;10.13;9.17;;;22.40;58.90;;;;;;5033402;28;20462;-76
2021/07/03 08:38:24;;;;;;;9.90;9.10;;;22.60;58.90;;;;;;5041344;28;20902;-76
2021/07/03 08:40:51;;;;;;;10.03;9.13;;;23.00;59.10;;;;;;5028727;28;20569;-76
2021/07/03 08:43:18;;;;;;;8.70;8.00;;;23.00;58.80;;;;;;5031577;28;20469;-76
2021/07/03 08:45:45;;;;;;;9.53;8.50;;;23.10;58.50;;;;;;5029040;28;20500;-76
2021/07/03 08:48:20;;;;;;;10.40;9.50;;;23.10;58.50;;;;;;5049899;28;20473;-76
2021/07/03 08:50:48;;;;;;;9.93;9.00;;;23.20;58.00;;;;;;5033917;28;20560;-77
2021/07/03 08:53:15;;;;;;;10.10;9.10;;;23.10;58.20;;;;;;5031228;28;20441;-76
2021/07/03 08:55:42;;;;;;;9.77;8.87;;;23.00;57.90;;;;;;5038440;28;20795;-76
2021/07/03 08:58:10;;;;;;;9.63;8.70;;;22.80;58.10;;;;;;5046425;28;20541;-76
2021/07/03 09:00:39;;;;;;;9.53;8.67;;;22.90;57.80;;;;;;5037507;28;20477;-76
2021/07/03 09:03:14;;;;;;;9.47;8.23;;;22.70;57.10;;;;;;5040049;28;20587;-76
2021/07/03 09:05:42;;;;;;;9.07;8.17;;;22.50;57.30;;;;;;5038207;28;20556;-76
2021/07/03 09:08:12;;;;;;;9.67;8.60;;;22.20;57.70;;;;;;5041832;28;20441;-76
2021/07/03 09:10:41;;;;;;;10.27;9.07;;;22.20;58.30;;;;;;5032427;28;20511;-75
2021/07/03 09:13:08;;;;;;;9.60;8.60;;;22.20;58.70;;;;;;5043025;28;20914;-76
2021/07/03 09:15:37;;;;;;;11.33;9.50;;;22.00;59.90;;;;;;5043312;28;20967;-76
2021/07/03 09:18:06;;;;;;;11.70;9.77;;;21.80;59.20;;;;;;5038257;28;20499;-76
2021/07/03 09:20:35;;;;;;;17.20;9.33;;;22.00;59.60;;;;;;5037927;28;20509;-77
2021/07/03 09:23:12;;;;;;;9.60;8.80;;;21.90;59.00;;;;;;5034947;28;21415;-76
2021/07/03 09:25:41;;;;;;;9.90;9.10;;;22.30;59.30;;;;;;5037658;28;20460;-77
2021/07/03 09:28:10;;;;;;;9.53;8.53;;;22.60;58.10;;;;;;5047912;28;20867;-77
2021/07/03 09:30:37;;;;;;;9.50;8.60;;;22.80;57.70;;;;;;5039291;28;20503;-76
2021/07/03 09:33:04;;;;;;;8.30;7.60;;;23.10;57.10;;;;;;5052324;28;20495;-76
2021/07/03 09:35:32;;;;;;;8.70;7.80;;;23.30;56.00;;;;;;5052345;28;20446;-76
2021/07/03 09:38:04;;;;;;;9.10;8.30;;;23.70;55.90;;;;;;5046012;28;20458;-76
2021/07/03 09:40:34;;;;;;;7.93;7.23;;;23.80;55.70;;;;;;5038021;28;20521;-76
2021/07/03 09:43:07;;;;;;;9.40;8.63;;;24.10;56.00;;;;;;5025750;28;20456;-76
2021/07/03 09:45:34;;;;;;;8.67;7.80;;;24.60;56.30;;;;;;5036153;28;20455;-76
2021/07/03 09:48:05;;;;;;;8.00;7.30;;;25.00;55.40;;;;;;5032283;28;21252;-76
2021/07/03 09:50:32;;;;;;;8.43;7.63;;;25.10;54.50;;;;;;5041630;28;20531;-77
2021/07/03 09:53:00;;;;;;;8.13;7.33;;;25.30;54.50;;;;;;5048302;28;20948;-77
2021/07/03 09:55:28;;;;;;;8.27;7.57;;;25.50;54.30;;;;;;5043955;28;20955;-77
2021/07/03 09:57:57;;;;;;;7.90;7.30;;;25.70;53.40;;;;;;5039019;28;20552;-76
2021/07/03 10:00:24;;;;;;;7.87;7.27;;;25.90;53.30;;;;;;5048721;28;20460;-77
2021/07/03 10:02:51;;;;;;;8.40;7.70;;;25.70;54.10;;;;;;5047070;28;20452;-76
2021/07/03 10:05:19;;;;;;;9.43;8.63;;;25.20;54.80;;;;;;5048910;28;20542;-76
2021/07/03 10:07:49;;;;;;;9.13;8.33;;;24.40;54.90;;;;;;5040700;28;20963;-76
2021/07/03 10:10:19;;;;;;;9.40;8.70;;;24.00;55.00;;;;;;5034515;28;20464;-76
2021/07/03 10:12:51;;;;;;;9.40;8.40;;;23.60;55.90;;;;;;5028133;28;20542;-76
2021/07/03 10:15:28;;;;;;;9.67;8.70;;;23.60;56.30;;;;;;5040313;28;20448;-76
2021/07/03 10:18:11;;;;;;;8.97;8.07;;;23.60;56.40;;;;;;5038128;28;20550;-76
2021/07/03 10:20:39;;;;;;;11.27;9.20;;;23.60;56.30;;;;;;5041786;28;20474;-77
2021/07/03 10:23:06;;;;;;;10.00;9.10;;;23.40;56.60;;;;;;5051117;28;20553;-76
2021/07/03 10:25:35;;;;;;;8.70;8.00;;;23.50;57.60;;;;;;5043276;28;20805;-76
2021/07/03 10:28:06;;;;;;;9.67;8.87;;;23.70;56.10;;;;;;5027170;28;20493;-76
2021/07/03 10:30:38;;;;;;;9.00;8.30;;;23.60;56.60;;;;;;5033063;28;20643;-77
2021/07/03 10:33:06;;;;;;;9.27;8.40;;;23.90;56.20;;;;;;5033040;28;20580;-77
2021/07/03 10:35:42;;;;;;;9.10;8.30;;;23.60;55.60;;;;;;5033693;28;20463;-77
2021/07/03 10:38:21;;;;;;;9.47;8.67;;;23.50;55.80;;;;;;5031583;28;20459;-77
2021/07/03 10:40:48;;;;;;;9.70;8.90;;;23.60;55.50;;;;;;5036950;28;20484;-77
2021/07/03 10:43:16;;;;;;;9.70;8.90;;;23.80;56.00;;;;;;5048784;28;20445;-76
2021/07/03 10:45:50;;;;;;;10.30;9.47;;;24.00;55.00;;;;;;5043401;28;20457;-77
2021/07/03 10:48:19;;;;;;;11.27;8.57;;;24.20;54.30;;;;;;5057811;28;20457;-76
2021/07/03 10:50:47;;;;;;;9.17;8.47;;;24.20;54.30;;;;;;5044016;28;20465;-77
2021/07/03 10:53:22;;;;;;;8.30;7.60;;;24.30;55.90;;;;;;5042956;28;20531;-77
2021/07/03 10:55:49;;;;;;;7.77;7.13;;;24.50;54.70;;;;;;5048786;28;20464;-76
2021/07/03 10:58:18;;;;;;;7.60;7.00;;;24.60;54.40;;;;;;5063781;28;20457;-75
2021/07/03 11:00:47;;;;;;;7.70;7.10;;;24.60;53.80;;;;;;5049753;28;20467;-77
2021/07/03 11:03:16;;;;;;;7.63;6.83;;;24.60;53.00;;;;;;5049034;28;20450;-78
2021/07/03 11:05:43;;;;;;;7.63;6.93;;;24.60;52.30;;;;;;5047026;28;20464;-77
2021/07/03 11:08:12;;;;;;;7.00;6.50;;;24.80;52.40;;;;;;5050042;28;20846;-77
2021/07/03 11:10:42;;;;;;;10.97;8.07;;;25.00;52.80;;;;;;5046977;28;20516;-77
2021/07/03 11:13:19;;;;;;;9.17;8.37;;;25.10;52.70;;;;;;5049528;28;20551;-77
2021/07/03 11:15:46;;;;;;;7.57;7.07;;;25.40;53.30;;;;;;5031639;28;20500;-75
2021/07/03 11:18:14;;;;;;;6.43;5.93;;;25.50;52.70;;;;;;5032777;28;20834;-77
2021/07/03 11:20:42;;;;;;;5.50;5.00;;;25.40;50.90;;;;;;5034581;28;21260;-77
2021/07/03 11:23:10;;;;;;;6.70;6.10;;;25.10;49.80;;;;;;5031763;28;20466;-76
2021/07/03 11:25:39;;;;;;;6.00;5.50;;;25.00;50.60;;;;;;5030843;28;20586;-76
2021/07/03 11:28:08;;;;;;;6.70;5.97;;;25.40;51.40;;;;;;5034281;28;20448;-76
2021/07/03 11:30:35;;;;;;;6.00;5.50;;;25.70;50.90;;;;;;5049288;28;20545;-76
2021/07/03 11:33:03;;;;;;;6.33;5.80;;;25.90;50.50;;;;;;5043522;28;20461;-76
2021/07/03 11:35:33;;;;;;;7.27;6.53;;;26.40;50.90;;;;;;5050737;28;20448;-76
2021/07/03 11:38:01;;;;;;;6.47;5.97;;;26.40;50.00;;;;;;5044120;28;20452;-77
2021/07/03 11:40:30;;;;;;;5.77;5.30;;;26.10;50.50;;;;;;5044675;28;20453;-76
2021/07/03 11:42:58;;;;;;;7.00;6.50;;;25.80;49.80;;;;;;5035801;28;20461;-76
2021/07/03 11:45:27;;;;;;;7.23;6.63;;;25.70;50.80;;;;;;5037515;28;20963;-78
2021/07/03 11:48:02;;;;;;;6.93;6.33;;;25.50;50.80;;;;;;5037344;28;20463;-76
2021/07/03 11:50:33;;;;;;;7.23;6.53;;;25.40;50.60;;;;;;5054169;28;20884;-77
2021/07/03 11:53:02;;;;;;;6.87;6.37;;;25.20;50.80;;;;;;5058508;28;21057;-81
2021/07/03 11:55:31;;;;;;;6.77;6.13;;;25.10;51.40;;;;;;5062038;28;20468;-80
2021/07/03 11:58:00;;;;;;;6.93;6.23;;;24.40;51.60;;;;;;5048868;28;20466;-79
2021/07/03 12:00:28;;;;;;;6.90;6.30;;;24.50;51.60;;;;;;5047166;28;20458;-80
2021/07/03 12:02:57;;;;;;;7.60;7.00;;;24.60;52.00;;;;;;5055473;28;20472;-77
2021/07/03 12:05:26;;;;;;;7.57;6.97;;;24.80;52.90;;;;;;5060392;28;20474;-80
2021/07/03 12:07:59;;;;;;;8.03;7.27;;;25.00;51.90;;;;;;5065026;28;20493;-80
2021/07/03 12:10:33;;;;;;;7.00;6.40;;;25.30;52.70;;;;;;5053796;28;20454;-80
2021/07/03 12:13:00;;;;;;;7.17;6.30;;;25.50;51.90;;;;;;5051736;28;20455;-79
2021/07/03 12:15:28;;;;;;;6.93;6.40;;;25.60;51.10;;;;;;5048384;28;20476;-81
2021/07/03 12:17:57;;;;;;;7.00;6.40;;;25.60;50.30;;;;;;5047991;28;20479;-79
2021/07/03 12:20:24;;;;;;;6.63;6.13;;;25.70;50.70;;;;;;5041549;28;20205;-79
2021/07/03 12:22:58;;;;;;;7.67;6.87;;;26.00;50.10;;;;;;5049011;28;20495;-78
2021/07/03 12:25:25;;;;;;;7.50;6.80;;;26.00;50.30;;;;;;5052933;28;20529;-78
2021/07/03 12:27:55;;;;;;;6.73;6.23;;;26.20;50.70;;;;;;5049081;28;20572;-79
2021/07/03 12:30:23;;;;;;;6.80;6.20;;;26.20;50.60;;;;;;5046353;28;20463;-78
2021/07/03 12:33:04;;;;;;;6.90;6.40;;;26.10;50.20;;;;;;5036901;28;20932;-79
2021/07/03 12:35:39;;;;;;;6.20;5.70;;;25.90;50.70;;;;;;5040978;28;20481;-78
2021/07/03 12:38:08;;;;;;;6.30;5.83;;;25.90;50.30;;;;;;5033432;28;20547;-77